Time;durP1;ratioP1;P1;durP2;ratioP2;P2;SDS_P1;SDS_P2;PMS_P1;PMS_P2;Temp;Humidity;BMP_temperature;BMP_pressure;BME280_temperature;BME280_humidity;BME280_pressure;Samples;Min_cycle;Max_cycle;Signal;HPM_P1;HPM_P2
2022/09/06 00:01:56;;;;;;;12.98;6.85;;;;;;;;;;4992128;28;20601;-72
2022/09/06 00:05:00;;;;;;;13.10;6.93;;;;;;;;;;4992100;28;20046;-73
2022/09/06 00:08:05;;;;;;;13.48;6.32;;;;;;;;;;4990474;28;20034;-72
2022/09/06 00:11:10;;;;;;;12.50;6.78;;;;;;;;;;4991630;28;20434;-73
2022/09/06 00:14:14;;;;;;;16.20;7.35;;;;;;;;;;5002426;28;20042;-72
2022/09/06 00:17:19;;;;;;;17.20;7.82;;;;;;;;;;4991417;28;20490;-73
2022/09/06 00:20:26;;;;;;;15.65;7.25;;;;;;;;;;4991611;28;20158;-73
2022/09/06 00:23:30;;;;;;;20.15;9.85;;;;;;;;;;4991565;28;20402;-73
2022/09/06 00:26:35;;;;;;;21.88;8.95;;;;;;;;;;4992155;28;20031;-73
2022/09/06 00:29:39;;;;;;;16.30;8.98;;;;;;;;;;4990640;28;20035;-72
2022/09/06 00:32:44;;;;;;;14.25;8.73;;;;;;;;;;4991427;28;20035;-73
2022/09/06 00:35:48;;;;;;;16.58;8.77;;;;;;;;;;4991824;28;20153;-73
2022/09/06 00:38:52;;;;;;;21.92;8.77;;;;;;;;;;5002055;28;20030;-73
2022/09/06 00:41:56;;;;;;;19.45;8.80;;;;;;;;;;4991689;28;20045;-73
2022/09/06 00:45:01;;;;;;;15.02;7.38;;;;;;;;;;4991683;28;20034;-72
2022/09/06 00:48:05;;;;;;;17.92;7.97;;;;;;;;;;5002314;28;20378;-72
2022/09/06 00:51:11;;;;;;;16.45;7.40;;;;;;;;;;5001795;28;20059;-73
2022/09/06 00:54:15;;;;;;;16.27;7.57;;;;;;;;;;4990821;28;20038;-73
2022/09/06 00:57:19;;;;;;;12.93;7.03;;;;;;;;;;4991304;28;20436;-72
2022/09/06 01:00:24;;;;;;;14.55;7.32;;;;;;;;;;4991216;28;20046;-73
2022/09/06 01:03:28;;;;;;;17.80;7.70;;;;;;;;;;4991186;28;20521;-73
2022/09/06 01:06:42;;;;;;;14.30;6.90;;;;;;;;;;4991244;28;20037;-72
2022/09/06 01:09:55;;;;;;;14.35;7.25;;;;;;;;;;4991207;28;20190;-72
2022/09/06 01:13:23;;;;;;;13.18;6.93;;;;;;;;;;4991270;28;20505;-73
2022/09/06 01:16:39;;;;;;;14.27;7.25;;;;;;;;;;4994703;28;20049;-72
2022/09/06 01:19:43;;;;;;;13.40;6.95;;;;;;;;;;4991786;28;20050;-72
2022/09/06 01:22:56;;;;;;;13.50;7.00;;;;;;;;;;4995090;28;20528;-72
2022/09/06 01:26:07;;;;;;;10.95;6.63;;;;;;;;;;5005199;28;20050;-73
2022/09/06 01:29:36;;;;;;;10.50;6.33;;;;;;;;;;4994786;28;20051;-72
2022/09/06 01:33:10;;;;;;;11.52;6.38;;;;;;;;;;4994487;28;20053;-72
2022/09/06 01:36:17;;;;;;;15.52;7.22;;;;;;;;;;4994758;28;20394;-72
2022/09/06 01:39:28;;;;;;;14.48;7.38;;;;;;;;;;4994572;28;20049;-73
2022/09/06 01:42:33;;;;;;;10.30;6.80;;;;;;;;;;5004866;28;20042;-72
2022/09/06 01:45:37;;;;;;;11.32;7.15;;;;;;;;;;4994366;28;20046;-73
2022/09/06 01:49:00;;;;;;;12.85;7.20;;;;;;;;;;4994184;28;20038;-73
2022/09/06 01:52:04;;;;;;;17.88;7.38;;;;;;;;;;4994526;28;20618;-72
2022/09/06 01:55:14;;;;;;;12.38;6.90;;;;;;;;;;4994419;28;20277;-73
2022/09/06 01:58:37;;;;;;;13.80;7.22;;;;;;;;;;4994792;28;20050;-73
2022/09/06 02:01:48;;;;;;;18.50;7.35;;;;;;;;;;4993902;28;20038;-73
2022/09/06 02:05:04;;;;;;;11.53;6.80;;;;;;;;;;5009614;28;20514;-73
2022/09/06 02:08:11;;;;;;;13.52;7.07;;;;;;;;;;4994162;28;20186;-73
2022/09/06 02:11:16;;;;;;;12.00;6.97;;;;;;;;;;4993708;28;20517;-73
2022/09/06 02:14:27;;;;;;;11.93;6.13;;;;;;;;;;4993238;28;20046;-72
2022/09/06 02:17:37;;;;;;;12.57;7.00;;;;;;;;;;4993459;28;20051;-72
2022/09/06 02:20:42;;;;;;;16.55;7.35;;;;;;;;;;4993850;28;20115;-72
2022/09/06 02:23:47;;;;;;;9.10;6.32;;;;;;;;;;4993029;28;20042;-72
2022/09/06 02:26:52;;;;;;;15.80;6.65;;;;;;;;;;4993540;28;20034;-72
2022/09/06 02:29:56;;;;;;;10.65;6.75;;;;;;;;;;4993713;28;20042;-72
2022/09/06 02:33:03;;;;;;;13.95;6.85;;;;;;;;;;4992042;28;20049;-72
2022/09/06 02:36:08;;;;;;;13.25;7.18;;;;;;;;;;4993475;28;20045;-72
2022/09/06 02:39:13;;;;;;;10.93;6.82;;;;;;;;;;4993210;28;20059;-72
2022/09/06 02:42:17;;;;;;;13.13;6.88;;;;;;;;;;5003955;28;20047;-72
2022/09/06 02:45:21;;;;;;;9.32;6.10;;;;;;;;;;4992591;28;20454;-72
2022/09/06 02:48:26;;;;;;;17.40;7.55;;;;;;;;;;4993287;28;20054;-72
2022/09/06 02:51:30;;;;;;;13.23;7.07;;;;;;;;;;4993050;28;20061;-72
2022/09/06 02:54:35;;;;;;;14.50;6.90;;;;;;;;;;4993234;28;20049;-72
2022/09/06 02:57:39;;;;;;;11.23;7.22;;;;;;;;;;4993226;28;20395;-72
2022/09/06 03:00:44;;;;;;;18.15;8.18;;;;;;;;;;4992973;28;20034;-72
2022/09/06 03:03:48;;;;;;;10.68;7.07;;;;;;;;;;4992803;28;20034;-72
2022/09/06 03:06:53;;;;;;;11.63;6.90;;;;;;;;;;4992511;28;20394;-72
2022/09/06 03:09:57;;;;;;;11.65;6.95;;;;;;;;;;4992071;28;20047;-72
2022/09/06 03:13:01;;;;;;;16.40;6.63;;;;;;;;;;4992483;28;20059;-72
2022/09/06 03:16:05;;;;;;;14.23;7.28;;;;;;;;;;4991333;28;20035;-72
2022/09/06 03:19:10;;;;;;;15.98;7.13;;;;;;;;;;4992642;28;20057;-72
2022/09/06 03:22:14;;;;;;;11.65;7.18;;;;;;;;;;4991699;28;20045;-72
2022/09/06 03:25:18;;;;;;;12.88;7.03;;;;;;;;;;4990959;28;20049;-72
2022/09/06 03:28:23;;;;;;;13.95;7.57;;;;;;;;;;4991965;28;20038;-72
2022/09/06 03:31:27;;;;;;;12.98;7.00;;;;;;;;;;4991707;28;20054;-72
2022/09/06 03:34:31;;;;;;;11.95;6.88;;;;;;;;;;4991650;28;20430;-72
2022/09/06 03:37:36;;;;;;;14.13;6.32;;;;;;;;;;4990861;28;20042;-72
2022/09/06 03:40:40;;;;;;;15.60;6.50;;;;;;;;;;4991691;28;20038;-72
2022/09/06 03:43:44;;;;;;;11.20;6.57;;;;;;;;;;4991624;28;20380;-72
2022/09/06 03:46:50;;;;;;;13.27;7.03;;;;;;;;;;4991785;28;20045;-72
2022/09/06 03:49:54;;;;;;;13.95;7.05;;;;;;;;;;4991208;28;20509;-72
2022/09/06 03:52:59;;;;;;;10.95;6.43;;;;;;;;;;4991777;28;20386;-72
2022/09/06 03:56:03;;;;;;;9.55;6.68;;;;;;;;;;4979989;28;20051;-72
2022/09/06 03:59:07;;;;;;;13.85;6.57;;;;;;;;;;4991959;28;20042;-72
2022/09/06 04:02:11;;;;;;;15.75;6.57;;;;;;;;;;4991173;28;20042;-72
2022/09/06 04:05:16;;;;;;;10.57;6.75;;;;;;;;;;4991967;28;20186;-72
2022/09/06 04:08:20;;;;;;;13.60;6.53;;;;;;;;;;4991874;28;20049;-72
2022/09/06 04:11:24;;;;;;;11.75;6.93;;;;;;;;;;4991636;28;20070;-72
2022/09/06 04:14:28;;;;;;;10.50;7.28;;;;;;;;;;4991851;28;20412;-72
2022/09/06 04:17:33;;;;;;;13.23;7.50;;;;;;;;;;4991693;28;20046;-73
2022/09/06 04:20:37;;;;;;;12.65;6.57;;;;;;;;;;4991708;28;20058;-72
2022/09/06 04:23:41;;;;;;;13.50;7.38;;;;;;;;;;4991751;28;20402;-73
2022/09/06 04:26:45;;;;;;;16.02;8.10;;;;;;;;;;4991508;28;20288;-72
2022/09/06 04:29:50;;;;;;;15.15;7.68;;;;;;;;;;4991401;28;20046;-73
2022/09/06 04:32:54;;;;;;;24.50;7.95;;;;;;;;;;4991544;28;20038;-72
2022/09/06 04:36:00;;;;;;;19.20;8.25;;;;;;;;;;4991368;28;20053;-72
2022/09/06 04:39:04;;;;;;;30.85;8.52;;;;;;;;;;4991366;28;20383;-72
2022/09/06 04:42:09;;;;;;;26.25;8.75;;;;;;;;;;4991357;28;20139;-72
2022/09/06 04:45:13;;;;;;;12.60;7.40;;;;;;;;;;4991266;28;20042;-72
2022/09/06 04:48:17;;;;;;;12.73;6.60;;;;;;;;;;4990238;28;20031;-72
2022/09/06 04:51:23;;;;;;;25.42;7.55;;;;;;;;;;4991354;28;20057;-74
2022/09/06 04:54:27;;;;;;;13.07;7.00;;;;;;;;;;4991683;28;20037;-74
2022/09/06 04:57:31;;;;;;;18.95;7.20;;;;;;;;;;5005415;28;20034;-74
2022/09/06 05:00:37;;;;;;;20.17;7.70;;;;;;;;;;4995017;28;20408;-74
2022/09/06 05:03:41;;;;;;;25.15;7.85;;;;;;;;;;4995018;28;20035;-73
2022/09/06 05:06:46;;;;;;;17.77;6.60;;;;;;;;;;4995316;28;20042;-74
2022/09/06 05:09:50;;;;;;;13.00;6.82;;;;;;;;;;4994649;28;20031;-74
2022/09/06 05:12:54;;;;;;;10.88;6.55;;;;;;;;;;5005421;28;20067;-73
2022/09/06 05:16:03;;;;;;;17.83;6.88;;;;;;;;;;4994980;28;20053;-73
2022/09/06 05:19:07;;;;;;;17.35;7.63;;;;;;;;;;4994670;28;20057;-74
2022/09/06 05:22:11;;;;;;;16.85;7.47;;;;;;;;;;4994807;28;20043;-74
2022/09/06 05:25:16;;;;;;;14.52;6.68;;;;;;;;;;4994875;28;20034;-74
2022/09/06 05:28:20;;;;;;;24.25;8.13;;;;;;;;;;5005088;28;20041;-71
2022/09/06 05:31:29;;;;;;;26.00;8.93;;;;;;;;;;4994337;28;20042;-71
2022/09/06 05:34:33;;;;;;;23.45;8.13;;;;;;;;;;4994652;28;20049;-69
2022/09/06 05:37:37;;;;;;;20.70;7.60;;;;;;;;;;4994113;28;20045;-66
2022/09/06 05:40:42;;;;;;;21.67;8.35;;;;;;;;;;4994134;28;20039;-65
2022/09/06 05:43:46;;;;;;;12.10;7.47;;;;;;;;;;4994458;28;20050;-65
2022/09/06 05:46:51;;;;;;;51.65;29.23;;;;;;;;;;4994797;28;20034;-66
2022/09/06 05:49:55;;;;;;;20.38;10.98;;;;;;;;;;4994277;28;20482;-66
2022/09/06 05:52:59;;;;;;;15.77;9.68;;;;;;;;;;4994128;28;20068;-66
2022/09/06 05:56:04;;;;;;;26.25;10.38;;;;;;;;;;4993773;28;20031;-67
2022/09/06 05:59:08;;;;;;;22.70;10.15;;;;;;;;;;4993908;28;20426;-66
2022/09/06 06:02:13;;;;;;;24.67;9.10;;;;;;;;;;4994001;28;20065;-67
2022/09/06 06:05:17;;;;;;;27.27;9.55;;;;;;;;;;4993938;28;20049;-67
2022/09/06 06:08:21;;;;;;;18.00;8.52;;;;;;;;;;4993083;28;20042;-66
2022/09/06 06:11:26;;;;;;;20.75;7.60;;;;;;;;;;4993712;28;20085;-67
2022/09/06 06:14:31;;;;;;;15.02;7.88;;;;;;;;;;4993682;28;20038;-69
2022/09/06 06:17:35;;;;;;;13.75;7.78;;;;;;;;;;4993281;28;20380;-67
2022/09/06 06:20:40;;;;;;;17.67;7.75;;;;;;;;;;4993441;28;20042;-69
2022/09/06 06:23:46;;;;;;;15.10;7.07;;;;;;;;;;4993538;28;20045;-69
2022/09/06 06:26:50;;;;;;;16.33;6.55;;;;;;;;;;4993469;28;20525;-72
2022/09/06 06:29:55;;;;;;;16.33;6.47;;;;;;;;;;4993068;28;20131;-67
2022/09/06 06:33:00;;;;;;;24.05;6.97;;;;;;;;;;4992842;28;20054;-70
2022/09/06 06:36:14;;;;;;;16.98;6.13;;;;;;;;;;4993020;28;20034;-69
2022/09/06 06:39:18;;;;;;;10.95;6.38;;;;;;;;;;4992639;28;20533;-75
2022/09/06 06:42:23;;;;;;;16.95;5.70;;;;;;;;;;4992545;28;20046;-73
2022/09/06 06:45:30;;;;;;;13.60;5.72;;;;;;;;;;4992608;28;20034;-68
2022/09/06 06:48:34;;;;;;;15.43;6.00;;;;;;;;;;4993002;28;20035;-71
2022/09/06 06:51:40;;;;;;;11.68;5.65;;;;;;;;;;4992764;28;20070;-68
2022/09/06 06:54:44;;;;;;;15.05;6.72;;;;;;;;;;4992942;28;20039;-68
2022/09/06 06:57:49;;;;;;;17.30;6.32;;;;;;;;;;4992798;28;20058;-69
2022/09/06 07:00:53;;;;;;;12.90;6.63;;;;;;;;;;4992510;28;20034;-69
2022/09/06 07:03:57;;;;;;;22.55;6.90;;;;;;;;;;4992490;28;20042;-69
2022/09/06 07:07:02;;;;;;;9.93;6.03;;;;;;;;;;4992601;28;20045;-69
2022/09/06 07:10:06;;;;;;;21.95;7.88;;;;;;;;;;4991768;28;20387;-69
2022/09/06 07:13:10;;;;;;;20.42;6.90;;;;;;;;;;4992596;28;20505;-68
2022/09/06 07:16:14;;;;;;;19.15;6.45;;;;;;;;;;4992749;28;20046;-69
2022/09/06 07:19:19;;;;;;;16.70;6.57;;;;;;;;;;4991813;28;20050;-69
2022/09/06 07:22:23;;;;;;;20.30;6.47;;;;;;;;;;4992347;28;20049;-69
2022/09/06 07:25:28;;;;;;;22.65;6.38;;;;;;;;;;4992072;28;20038;-69
2022/09/06 07:28:32;;;;;;;13.35;5.15;;;;;;;;;;4992034;28;20506;-69
2022/09/06 07:31:37;;;;;;;14.70;5.90;;;;;;;;;;4991829;28;20058;-69
2022/09/06 07:34:41;;;;;;;21.48;5.93;;;;;;;;;;4992041;28;20038;-69
2022/09/06 07:37:52;;;;;;;13.43;4.97;;;;;;;;;;4991744;28;20050;-69
2022/09/06 07:40:58;;;;;;;10.85;5.53;;;;;;;;;;4992147;28;20041;-69
2022/09/06 07:44:03;;;;;;;19.08;5.38;;;;;;;;;;4991791;28;20373;-69
2022/09/06 07:47:07;;;;;;;10.35;4.65;;;;;;;;;;4991575;28;20482;-69
2022/09/06 07:50:12;;;;;;;17.83;5.20;;;;;;;;;;4991284;28;20129;-69
2022/09/06 07:53:16;;;;;;;9.27;4.80;;;;;;;;;;4992033;28;20402;-69
2022/09/06 07:56:23;;;;;;;13.50;4.80;;;;;;;;;;4991566;28;20506;-69
2022/09/06 07:59:27;;;;;;;12.77;4.65;;;;;;;;;;4991283;28;20046;-69
2022/09/06 08:02:31;;;;;;;15.27;4.82;;;;;;;;;;4991710;28;20045;-69
2022/09/06 08:05:36;;;;;;;7.95;4.90;;;;;;;;;;4991426;28;20034;-69
2022/09/06 08:08:40;;;;;;;17.00;5.75;;;;;;;;;;4990490;28;20474;-69
2022/09/06 08:11:44;;;;;;;15.32;5.63;;;;;;;;;;4990965;28;20073;-69
2022/09/06 08:14:49;;;;;;;23.38;6.85;;;;;;;;;;4991333;28;20065;-69
2022/09/06 08:17:53;;;;;;;11.35;5.05;;;;;;;;;;4991196;28;20363;-69
2022/09/06 08:21:08;;;;;;;9.77;5.35;;;;;;;;;;4991421;28;20506;-69
2022/09/06 08:24:12;;;;;;;15.40;4.93;;;;;;;;;;4991225;28;20038;-69
2022/09/06 08:27:16;;;;;;;10.00;5.20;;;;;;;;;;4990944;28;20657;-69
2022/09/06 08:30:21;;;;;;;10.88;5.00;;;;;;;;;;4993323;28;20049;-69
2022/09/06 08:33:26;;;;;;;11.63;4.00;;;;;;;;;;4995230;28;20049;-69
2022/09/06 08:36:31;;;;;;;10.65;4.15;;;;;;;;;;4995334;28;20058;-68
2022/09/06 08:39:35;;;;;;;8.10;3.88;;;;;;;;;;4994994;28;20046;-68
2022/09/06 08:42:39;;;;;;;8.75;3.97;;;;;;;;;;4995252;28;20467;-68
2022/09/06 08:45:45;;;;;;;7.00;3.45;;;;;;;;;;4995273;28;20042;-68
2022/09/06 08:48:49;;;;;;;9.07;4.05;;;;;;;;;;4995040;28;20042;-68
2022/09/06 08:52:06;;;;;;;6.65;3.38;;;;;;;;;;4994835;28;20046;-68
2022/09/06 08:55:26;;;;;;;12.77;4.50;;;;;;;;;;4994976;28;20050;-68
2022/09/06 08:58:35;;;;;;;10.55;4.00;;;;;;;;;;4994873;28;20038;-68
2022/09/06 09:01:50;;;;;;;11.00;3.72;;;;;;;;;;4995089;28;20054;-70
2022/09/06 09:04:57;;;;;;;6.68;3.00;;;;;;;;;;4995394;28;20356;-69
2022/09/06 09:08:20;;;;;;;8.35;3.40;;;;;;;;;;4994980;28;20046;-68
2022/09/06 09:11:25;;;;;;;6.45;3.60;;;;;;;;;;4993988;28;20050;-66
2022/09/06 09:14:34;;;;;;;6.18;3.47;;;;;;;;;;4994267;28;20038;-69
2022/09/06 09:17:38;;;;;;;5.75;3.53;;;;;;;;;;4994540;28;20058;-73
2022/09/06 09:20:42;;;;;;;6.93;3.40;;;;;;;;;;5005030;28;20042;-74
2022/09/06 09:23:51;;;;;;;8.43;3.85;;;;;;;;;;4994594;28;20042;-77
2022/09/06 09:27:07;;;;;;;12.95;3.63;;;;;;;;;;4993364;28;20038;-75
2022/09/06 09:30:12;;;;;;;14.30;3.45;;;;;;;;;;4994012;28;20049;-72
2022/09/06 09:33:20;;;;;;;7.80;3.45;;;;;;;;;;4993726;28;20428;-71
2022/09/06 09:36:24;;;;;;;11.18;3.30;;;;;;;;;;4994156;28;20478;-79
2022/09/06 09:39:34;;;;;;;13.43;4.00;;;;;;;;;;4994464;28;20042;-75
2022/09/06 09:42:39;;;;;;;5.00;3.20;;;;;;;;;;4994185;28;20046;-73
2022/09/06 09:45:43;;;;;;;8.30;2.95;;;;;;;;;;5004907;28;20042;-78
2022/09/06 09:49:06;;;;;;;12.43;3.00;;;;;;;;;;4994874;28;20034;-73
2022/09/06 09:52:15;;;;;;;8.88;3.40;;;;;;;;;;4994235;28;20342;-82
2022/09/06 09:55:24;;;;;;;9.82;3.05;;;;;;;;;;4993777;28;20113;-75
2022/09/06 09:58:34;;;;;;;8.27;2.88;;;;;;;;;;4993258;28;20034;-74
2022/09/06 10:01:38;;;;;;;6.57;3.05;;;;;;;;;;4994145;28;20359;-84
2022/09/06 10:04:48;;;;;;;8.10;3.03;;;;;;;;;;4993983;28;20123;-80
2022/09/06 10:07:53;;;;;;;4.90;2.92;;;;;;;;;;4993850;28;20042;-82
2022/09/06 10:10:58;;;;;;;7.63;2.95;;;;;;;;;;4993196;28;20478;-73
2022/09/06 10:14:13;;;;;;;6.15;3.10;;;;;;;;;;4993687;28;20046;-75
2022/09/06 10:17:26;;;;;;;4.82;2.97;;;;;;;;;;5003944;28;20046;-81
2022/09/06 10:20:51;;;;;;;10.18;3.50;;;;;;;;;;4993364;28;20046;-77
2022/09/06 10:24:01;;;;;;;4.50;3.25;;;;;;;;;;5003937;28;20042;-79
2022/09/06 10:27:07;;;;;;;;;;;;;;;;;;4993273;28;20042;-85
2022/09/06 10:30:13;;;;;;;9.25;3.20;;;;;;;;;;4992629;28;19917;-77
2022/09/06 10:33:23;;;;;;;5.57;2.95;;;;;;;;;;4993005;28;20047;-72
2022/09/06 10:36:35;;;;;;;10.38;3.47;;;;;;;;;;4993020;28;20042;-77
2022/09/06 10:39:42;;;;;;;5.82;3.30;;;;;;;;;;4991288;28;20055;-73
2022/09/06 10:42:48;;;;;;;4.18;2.47;;;;;;;;;;4992925;28;20034;-74
2022/09/06 10:45:56;;;;;;;7.07;2.80;;;;;;;;;;4992872;28;20378;-76
2022/09/06 10:49:01;;;;;;;6.15;3.10;;;;;;;;;;4992939;28;20026;-83
2022/09/06 10:52:07;;;;;;;7.13;3.08;;;;;;;;;;5002823;28;20038;-77
2022/09/06 10:55:14;;;;;;;7.93;3.22;;;;;;;;;;5004031;28;20038;-82
2022/09/06 10:58:24;;;;;;;6.78;2.90;;;;;;;;;;4992801;28;20039;-81
2022/09/06 11:01:35;;;;;;;13.43;2.83;;;;;;;;;;4993209;28;20502;-81
2022/09/06 11:04:41;;;;;;;8.38;3.13;;;;;;;;;;4993341;28;20050;-82
2022/09/06 11:07:46;;;;;;;3.72;2.72;;;;;;;;;;4994115;28;20043;-82
2022/09/06 11:10:51;;;;;;;5.20;2.70;;;;;;;;;;4994334;28;20498;-83
2022/09/06 11:13:55;;;;;;;4.80;2.47;;;;;;;;;;4994463;28;20042;-81
2022/09/06 11:17:03;;;;;;;7.18;2.75;;;;;;;;;;4993600;28;20042;-83
2022/09/06 11:20:15;;;;;;;8.65;2.67;;;;;;;;;;4993160;28;20490;-82
2022/09/06 11:23:32;;;;;;;4.25;2.58;;;;;;;;;;5006496;28;20046;-83
2022/09/06 11:26:42;;;;;;;7.20;2.70;;;;;;;;;;4993859;28;20486;-82
2022/09/06 11:29:47;;;;;;;;;;;;;;;;;;4994610;28;20046;-81
2022/09/06 11:33:01;;;;;;;8.40;2.65;;;;;;;;;;4993267;28;20285;-81
2022/09/06 11:36:38;;;;;;;4.05;2.70;;;;;;;;;;4994026;28;20034;-81
2022/09/06 11:39:42;;;;;;;6.82;2.53;;;;;;;;;;4998884;28;20042;-82
2022/09/06 11:42:50;;;;;;;4.35;2.40;;;;;;;;;;5003416;28;20042;-82
2022/09/06 11:45:54;;;;;;;5.63;3.17;;;;;;;;;;4992495;28;20030;-84
2022/09/06 11:49:00;;;;;;;7.32;2.85;;;;;;;;;;4992683;28;20050;-82
2022/09/06 11:52:24;;;;;;;7.10;3.17;;;;;;;;;;4992441;28;20054;-82
2022/09/06 11:55:39;;;;;;;4.28;2.78;;;;;;;;;;4992945;28;20038;-81
2022/09/06 11:58:50;;;;;;;4.15;2.70;;;;;;;;;;4992326;28;20034;-82
2022/09/06 12:01:55;;;;;;;12.57;3.78;;;;;;;;;;4992292;28;20043;-82
2022/09/06 12:05:05;;;;;;;8.77;3.28;;;;;;;;;;4992190;28;20039;-82
2022/09/06 12:08:09;;;;;;;;;;;;;;;;;;4994436;28;20038;-80
2022/09/06 12:11:33;;;;;;;6.95;3.70;;;;;;;;;;4992626;28;19920;-82
2022/09/06 12:14:40;;;;;;;4.82;3.35;;;;;;;;;;4992837;28;20039;-82
2022/09/06 12:17:47;;;;;;;19.20;4.93;;;;;;;;;;4992711;28;20042;-83
2022/09/06 12:20:52;;;;;;;9.15;4.80;;;;;;;;;;4991459;28;20521;-81
2022/09/06 12:23:56;;;;;;;10.02;4.80;;;;;;;;;;4992045;28;20035;-81
2022/09/06 12:27:17;;;;;;;14.48;5.90;;;;;;;;;;4991568;28;20273;-83
2022/09/06 12:30:40;;;;;;;10.90;5.47;;;;;;;;;;4992077;28;20402;-84
2022/09/06 12:33:46;;;;;;;8.95;5.63;;;;;;;;;;4992102;28;20050;-77
2022/09/06 12:36:55;;;;;;;10.05;5.50;;;;;;;;;;4992124;28;20038;-77
2022/09/06 12:40:00;;;;;;;6.63;4.57;;;;;;;;;;5002140;28;20034;-77
2022/09/06 12:43:04;;;;;;;10.93;5.18;;;;;;;;;;4992054;28;20042;-76
2022/09/06 12:46:08;;;;;;;9.00;4.40;;;;;;;;;;4991851;28;20042;-78
2022/09/06 12:49:14;;;;;;;7.72;4.88;;;;;;;;;;4991606;28;20038;-80
2022/09/06 12:52:19;;;;;;;9.25;4.57;;;;;;;;;;4990704;28;20054;-80
2022/09/06 12:55:23;;;;;;;8.00;4.72;;;;;;;;;;4991670;28;20038;-77
2022/09/06 12:58:28;;;;;;;6.82;3.97;;;;;;;;;;4991328;28;20046;-74
2022/09/06 13:01:34;;;;;;;4.78;3.88;;;;;;;;;;4991331;28;20042;-77
2022/09/06 13:04:43;;;;;;;8.40;4.57;;;;;;;;;;4991625;28;20455;-76
2022/09/06 13:07:50;;;;;;;8.15;4.45;;;;;;;;;;4991354;28;20046;-79
2022/09/06 13:10:54;;;;;;;9.07;3.78;;;;;;;;;;4991026;28;20391;-80
2022/09/06 13:13:59;;;;;;;11.75;4.25;;;;;;;;;;4991751;28;20038;-84
2022/09/06 13:17:04;;;;;;;11.05;4.60;;;;;;;;;;4993982;28;20038;-78
2022/09/06 13:20:13;;;;;;;11.85;4.40;;;;;;;;;;5005598;28;20041;-75
2022/09/06 13:23:21;;;;;;;8.98;4.30;;;;;;;;;;4994923;28;20038;-76
2022/09/06 13:26:31;;;;;;;13.20;4.53;;;;;;;;;;4994982;28;20042;-77
2022/09/06 13:29:35;;;;;;;8.73;4.40;;;;;;;;;;5005591;28;20038;-73
2022/09/06 13:32:46;;;;;;;9.07;3.67;;;;;;;;;;4994401;28;20054;-75
2022/09/06 13:36:03;;;;;;;7.95;3.80;;;;;;;;;;4994815;28;20034;-75
2022/09/06 13:39:08;;;;;;;13.57;3.78;;;;;;;;;;4994569;28;20050;-75
2022/09/06 13:42:27;;;;;;;6.80;4.00;;;;;;;;;;4994600;28;20051;-76
2022/09/06 13:45:32;;;;;;;10.65;3.97;;;;;;;;;;4994336;28;20038;-75
2022/09/06 13:48:38;;;;;;;11.75;4.15;;;;;;;;;;4994397;28;20404;-78
2022/09/06 13:51:42;;;;;;;16.38;4.53;;;;;;;;;;4993343;28;20038;-80
2022/09/06 13:54:47;;;;;;;11.40;4.03;;;;;;;;;;4994442;28;20042;-84
2022/09/06 13:57:51;;;;;;;9.23;3.45;;;;;;;;;;5004320;28;20038;-80
2022/09/06 14:00:56;;;;;;;7.25;3.30;;;;;;;;;;4993777;28;20042;-83
2022/09/06 14:04:00;;;;;;;8.20;3.28;;;;;;;;;;4993789;28;20050;-76
2022/09/06 14:07:05;;;;;;;13.18;4.30;;;;;;;;;;4993516;28;20053;-77
2022/09/06 14:10:13;;;;;;;10.68;4.05;;;;;;;;;;4993951;28;20677;-79
2022/09/06 14:13:18;;;;;;;18.80;3.90;;;;;;;;;;4993662;28;20050;-79
2022/09/06 14:16:22;;;;;;;10.70;4.00;;;;;;;;;;4993989;28;20042;-76
2022/09/06 14:19:27;;;;;;;9.90;3.17;;;;;;;;;;5003869;28;20073;-76
2022/09/06 14:22:31;;;;;;;9.45;3.45;;;;;;;;;;4981569;28;20043;-79
2022/09/06 14:25:36;;;;;;;15.45;3.53;;;;;;;;;;4994462;28;20046;-81
2022/09/06 14:28:41;;;;;;;6.28;2.90;;;;;;;;;;4992579;28;20038;-78
2022/09/06 14:31:47;;;;;;;11.50;3.30;;;;;;;;;;4993526;28;20046;-78
2022/09/06 14:34:51;;;;;;;7.65;2.70;;;;;;;;;;5004065;28;20037;-77
2022/09/06 14:37:55;;;;;;;8.45;2.83;;;;;;;;;;5004158;28;20383;-79
2022/09/06 14:41:03;;;;;;;8.52;3.03;;;;;;;;;;4993255;28;20462;-78
2022/09/06 14:44:08;;;;;;;6.10;2.85;;;;;;;;;;4993678;28;20038;-77
2022/09/06 14:47:12;;;;;;;8.68;3.13;;;;;;;;;;4993341;28;20034;-76
2022/09/06 14:50:17;;;;;;;9.05;3.00;;;;;;;;;;4993311;28;20482;-77
2022/09/06 14:53:21;;;;;;;10.85;2.75;;;;;;;;;;5003497;28;20588;-77
2022/09/06 14:56:28;;;;;;;10.40;3.70;;;;;;;;;;4992905;28;20046;-79
2022/09/06 14:59:33;;;;;;;6.20;2.78;;;;;;;;;;4993024;28;20040;-76
2022/09/06 15:02:37;;;;;;;10.93;2.70;;;;;;;;;;4992695;28;20030;-80
2022/09/06 15:05:41;;;;;;;6.45;2.90;;;;;;;;;;4992937;28;20042;-75
2022/09/06 15:08:47;;;;;;;12.00;2.70;;;;;;;;;;4992927;28;20042;-72
2022/09/06 15:11:52;;;;;;;5.18;2.33;;;;;;;;;;4992857;28;20046;-75
2022/09/06 15:14:56;;;;;;;3.55;2.28;;;;;;;;;;4991871;28;20379;-72
2022/09/06 15:18:00;;;;;;;10.52;3.03;;;;;;;;;;4992222;28;20043;-78
2022/09/06 15:21:08;;;;;;;10.35;3.30;;;;;;;;;;4992865;28;20403;-75
2022/09/06 15:24:14;;;;;;;8.38;2.92;;;;;;;;;;4992406;28;20034;-74
2022/09/06 15:27:18;;;;;;;6.63;2.95;;;;;;;;;;4992039;28;20101;-74
2022/09/06 15:30:22;;;;;;;8.07;3.50;;;;;;;;;;4992134;28;20042;-73
2022/09/06 15:33:30;;;;;;;9.27;3.35;;;;;;;;;;4991936;28;20051;-72
2022/09/06 15:36:35;;;;;;;9.02;3.30;;;;;;;;;;4991759;28;20035;-76
2022/09/06 15:39:39;;;;;;;9.40;3.17;;;;;;;;;;4991673;28;20042;-82
2022/09/06 15:42:43;;;;;;;7.78;3.70;;;;;;;;;;4992083;28;20038;-75
2022/09/06 15:45:49;;;;;;;14.73;3.72;;;;;;;;;;4991927;28;20392;-76
2022/09/06 15:48:53;;;;;;;14.02;3.30;;;;;;;;;;4991439;28;20046;-82
2022/09/06 15:51:59;;;;;;;8.32;3.30;;;;;;;;;;4992427;28;20051;-75
2022/09/06 15:58:27;;;;;;;9.10;3.03;;;;;;;;;;4991969;28;20046;-77
2022/09/06 16:01:32;;;;;;;7.90;4.35;;;;;;;;;;4991235;28;20026;-80
2022/09/06 16:04:37;;;;;;;10.35;3.83;;;;;;;;;;4991819;28;20038;-77
2022/09/06 16:07:43;;;;;;;9.75;3.67;;;;;;;;;;4990910;28;20038;-74
2022/09/06 16:10:48;;;;;;;18.77;5.35;;;;;;;;;;4991409;28;20034;-74
2022/09/06 16:13:53;;;;;;;9.82;3.65;;;;;;;;;;4991610;28;20479;-75
2022/09/06 16:16:57;;;;;;;11.85;3.60;;;;;;;;;;4991377;28;20030;-73
2022/09/06 16:20:02;;;;;;;7.95;4.35;;;;;;;;;;4991377;28;20034;-77
2022/09/06 16:23:06;;;;;;;7.93;3.40;;;;;;;;;;4991292;28;20395;-76
2022/09/06 16:26:11;;;;;;;12.95;4.13;;;;;;;;;;4992109;28;20042;-74
2022/09/06 16:29:16;;;;;;;17.38;4.05;;;;;;;;;;4991260;28;20042;-72
2022/09/06 16:32:21;;;;;;;14.07;3.95;;;;;;;;;;4991001;28;20050;-73
2022/09/06 16:35:25;;;;;;;8.73;3.60;;;;;;;;;;4991199;28;20049;-73
2022/09/06 16:38:30;;;;;;;9.60;4.10;;;;;;;;;;4991093;28;20372;-73
2022/09/06 16:41:39;;;;;;;10.48;4.18;;;;;;;;;;4991211;28;20035;-73
2022/09/06 16:44:43;;;;;;;10.55;4.15;;;;;;;;;;4991264;28;20054;-73
2022/09/06 16:47:47;;;;;;;10.98;3.85;;;;;;;;;;4990881;28;20395;-74
2022/09/06 16:50:52;;;;;;;12.55;4.30;;;;;;;;;;4992259;28;20046;-74
2022/09/06 16:53:57;;;;;;;11.52;4.50;;;;;;;;;;4994981;28;20046;-75
2022/09/06 16:57:01;;;;;;;7.55;4.45;;;;;;;;;;4993831;28;20402;-75
2022/09/06 17:00:06;;;;;;;11.85;4.57;;;;;;;;;;4994681;28;20042;-75
2022/09/06 17:03:14;;;;;;;11.38;4.55;;;;;;;;;;4995321;28;20038;-77
2022/09/06 17:06:18;;;;;;;10.82;4.63;;;;;;;;;;4995174;28;20038;-74
2022/09/06 17:09:22;;;;;;;9.40;4.20;;;;;;;;;;4995012;28;20039;-76
2022/09/06 17:12:28;;;;;;;8.45;3.42;;;;;;;;;;4994897;28;20054;-75
2022/09/06 17:17:03;;;;;;;9.30;3.40;;;;;;;;;;4994698;28;20042;-75
2022/09/06 17:18:58;;;;;;;10.40;3.38;;;;;;;;;;4994279;28;20050;-74
2022/09/06 17:22:03;;;;;;;10.40;2.88;;;;;;;;;;4994512;28;20027;-75
2022/09/06 17:25:07;;;;;;;16.33;3.00;;;;;;;;;;4994230;28;20046;-74
2022/09/06 17:28:11;;;;;;;7.68;3.03;;;;;;;;;;4995282;28;20039;-74
2022/09/06 17:31:16;;;;;;;11.32;3.15;;;;;;;;;;4994536;28;20038;-75
2022/09/06 17:34:21;;;;;;;12.65;2.88;;;;;;;;;;4994797;28;20047;-74
2022/09/06 17:37:25;;;;;;;7.22;2.67;;;;;;;;;;4994378;28;20057;-74
2022/09/06 17:40:30;;;;;;;10.93;3.25;;;;;;;;;;4994523;28;20042;-73
2022/09/06 17:43:37;;;;;;;9.55;2.83;;;;;;;;;;4993611;28;20061;-73
2022/09/06 17:46:41;;;;;;;9.10;3.13;;;;;;;;;;4993647;28;20050;-73
2022/09/06 17:49:46;;;;;;;11.23;3.50;;;;;;;;;;4994467;28;20038;-74
2022/09/06 17:52:52;;;;;;;7.30;2.88;;;;;;;;;;5004528;28;20073;-73
2022/09/06 17:55:56;;;;;;;10.07;3.08;;;;;;;;;;4993909;28;20050;-72
2022/09/06 17:59:02;;;;;;;7.78;3.30;;;;;;;;;;4993920;28;20380;-72
2022/09/06 18:02:07;;;;;;;11.38;3.20;;;;;;;;;;4993879;28;20038;-74
2022/09/06 18:05:11;;;;;;;9.02;3.85;;;;;;;;;;4994006;28;20047;-74
2022/09/06 18:08:16;;;;;;;15.93;4.05;;;;;;;;;;4994085;28;20042;-75
2022/09/06 18:11:25;;;;;;;8.60;3.88;;;;;;;;;;5004562;28;20038;-74
2022/09/06 18:14:29;;;;;;;9.93;3.85;;;;;;;;;;4993801;28;20046;-74
2022/09/06 18:17:34;;;;;;;10.68;3.30;;;;;;;;;;4992830;28;20042;-75
2022/09/06 18:20:38;;;;;;;9.82;3.97;;;;;;;;;;4994202;28;20124;-74
2022/09/06 18:23:43;;;;;;;8.80;4.03;;;;;;;;;;4993640;28;20034;-74
2022/09/06 18:26:47;;;;;;;8.73;4.20;;;;;;;;;;5004205;28;20034;-74
2022/09/06 18:29:52;;;;;;;11.20;3.83;;;;;;;;;;4992310;28;20034;-74
2022/09/06 18:32:56;;;;;;;25.27;6.10;;;;;;;;;;4993175;28;20043;-73